Time;durP1;ratioP1;P1;durP2;ratioP2;P2;SDS_P1;SDS_P2;PMS_P1;PMS_P2;Temp;Humidity;BMP_temperature;BMP_pressure;BME280_temperature;BME280_humidity;BME280_pressure;Samples;Min_cycle;Max_cycle;Signal;HPM_P1;HPM_P2
2022/11/16 06:20:31;;;;;;;19.52;11.83;;;;;;;7.61;73.74;99988.91;1722155;82;21201;-59
2022/11/16 06:23:37;;;;;;;32.80;19.45;;;;;;;7.69;73.80;99987.24;1721489;82;21200;-58
2022/11/16 06:26:44;;;;;;;29.95;19.60;;;;;;;7.73;73.73;99985.87;1719416;83;21303;-59
2022/11/16 06:29:50;;;;;;;32.73;20.12;;;;;;;7.75;73.67;99985.20;1721439;82;21559;-59
2022/11/16 06:32:57;;;;;;;27.75;16.77;;;;;;;7.75;73.51;99983.84;1721044;83;21188;-59
2022/11/16 06:36:05;;;;;;;23.70;14.20;;;;;;;7.77;73.53;99983.17;1703947;82;21299;-59
2022/11/16 06:39:15;;;;;;;23.62;14.25;;;;;;;7.79;73.52;99984.70;1690995;84;21220;-59
2022/11/16 06:42:21;;;;;;;22.95;13.55;;;;;;;7.83;73.62;99979.27;1651036;85;21382;-58
2022/11/16 06:45:26;;;;;;;23.98;14.35;;;;;;;7.89;73.59;99975.00;1693097;83;21316;-59
2022/11/16 06:48:32;;;;;;;21.40;12.70;;;;;;;7.91;73.55;99974.33;1696673;84;21260;-58
2022/11/16 06:51:38;;;;;;;20.75;12.20;;;;;;;7.96;73.65;99974.16;1671510;84;21292;-58
2022/11/16 06:54:45;;;;;;;20.17;11.28;;;;;;;8.02;73.77;99976.22;1689983;83;21185;-58
2022/11/16 06:57:52;;;;;;;22.52;13.13;;;;;;;8.08;73.86;99964.64;1666902;86;21386;-59
2022/11/16 07:01:00;;;;;;;22.40;13.75;;;;;;;8.13;73.83;99964.13;1679181;84;21332;-59
2022/11/16 07:04:10;;;;;;;22.75;14.55;;;;;;;8.16;73.86;99971.45;1635093;87;21353;-59
2022/11/16 07:07:16;;;;;;;21.45;12.70;;;;;;;8.20;73.88;99959.67;1627343;87;21361;-59
2022/11/16 07:10:22;;;;;;;21.77;15.00;;;;;;;8.25;73.86;99954.59;1649129;86;21689;-59
2022/11/16 07:13:27;;;;;;;21.25;13.43;;;;;;;8.31;73.80;99956.66;1640056;86;21297;-58
2022/11/16 07:16:38;;;;;;;20.20;12.85;;;;;;;8.36;73.75;99947.42;1639209;87;21366;-59
2022/11/16 07:19:44;;;;;;;20.08;12.60;;;;;;;8.41;73.74;99955.95;1658610;81;21193;-59
2022/11/16 07:22:50;;;;;;;18.05;12.75;;;;;;;8.47;73.76;99937.52;1683967;85;21260;-58
2022/11/16 07:25:55;;;;;;;18.45;12.68;;;;;;;8.49;73.58;99941.80;1734372;81;21212;-58
2022/11/16 07:29:02;;;;;;;17.12;11.45;;;;;;;8.48;73.42;99937.88;1736509;82;21569;-59
2022/11/16 07:32:11;;;;;;;20.27;12.25;;;;;;;8.49;73.38;99936.84;1685950;83;21231;-58
2022/11/16 07:35:21;;;;;;;19.65;12.65;;;;;;;8.51;73.35;99936.16;1673087;85;21228;-58
2022/11/16 07:38:26;;;;;;;21.73;13.45;;;;;;;8.49;73.32;99925.93;1686852;83;21228;-58
2022/11/16 07:41:34;;;;;;;20.43;13.93;;;;;;;8.51;73.40;99920.66;1689604;83;21775;-59
2022/11/16 07:44:50;;;;;;;23.00;14.85;;;;;;;8.54;73.36;99919.45;1688953;85;21804;-58
2022/11/16 07:47:59;;;;;;;22.77;15.05;;;;;;;8.58;73.50;99913.97;1689293;85;21213;-59
2022/11/16 07:51:23;;;;;;;22.13;14.63;;;;;;;8.62;73.46;99916.70;1637443;85;21264;-57
2022/11/16 07:54:33;;;;;;;21.73;13.53;;;;;;;8.64;73.49;99914.12;1681964;83;21268;-58
2022/11/16 07:57:39;;;;;;;25.60;14.63;;;;;;;8.71;73.61;99917.00;1681393;83;22295;-58
2022/11/16 08:00:48;;;;;;;25.32;15.63;;;;;;;8.79;73.72;99923.80;1677929;85;21379;-58
2022/11/16 08:03:56;;;;;;;24.57;15.00;;;;;;;8.84;73.86;99928.23;1669536;85;21223;-60
2022/11/16 08:07:05;;;;;;;49.50;34.10;;;;;;;8.90;73.91;99927.52;1674729;83;21331;-59
2022/11/16 08:10:14;;;;;;;28.52;18.73;;;;;;;8.94;73.95;99930.25;1676363;83;21245;-60
2022/11/16 08:13:24;;;;;;;24.30;15.93;;;;;;;8.97;74.00;99933.98;1671584;85;21788;-58
2022/11/16 08:16:32;;;;;;;28.52;17.23;;;;;;;9.00;74.03;99936.36;1675928;85;21197;-59
2022/11/16 08:19:41;;;;;;;27.52;16.70;;;;;;;9.01;74.07;99938.05;1677757;83;21824;-58
2022/11/16 08:22:55;;;;;;;25.57;16.12;;;;;;;9.00;74.04;99930.90;1668123;85;21220;-62
2022/11/16 08:26:16;;;;;;;27.58;17.35;;;;;;;8.98;73.95;99930.22;1657881;85;21244;-58
2022/11/16 08:29:32;;;;;;;28.00;17.62;;;;;;;8.96;73.93;99935.85;1733197;82;21239;-59
2022/11/16 08:32:41;;;;;;;26.65;16.40;;;;;;;8.97;73.99;99923.89;1734927;81;21650;-62
2022/11/16 08:35:49;;;;;;;27.05;17.37;;;;;;;8.99;74.14;99927.30;1720902;82;21204;-58
2022/11/16 08:38:57;;;;;;;25.80;17.15;;;;;;;9.01;74.25;99933.95;1669117;84;21524;-58
2022/11/16 08:42:03;;;;;;;26.97;16.27;;;;;;;9.02;74.25;99935.67;1737447;81;21184;-57
2022/11/16 08:45:09;;;;;;;23.92;16.32;;;;;;;9.01;74.27;99933.95;1686359;83;21274;-56
2022/11/16 08:48:15;;;;;;;25.62;16.30;;;;;;;9.01;74.24;99928.50;1727790;82;21526;-58
2022/11/16 08:51:22;;;;;;;25.95;17.92;;;;;;;9.02;74.27;99922.02;1659201;85;21248;-58
2022/11/16 08:54:29;;;;;;;27.50;17.20;;;;;;;9.03;74.22;99921.84;1735708;79;21565;-59
2022/11/16 08:57:35;;;;;;;29.77;19.00;;;;;;;9.04;74.20;99920.81;1708759;82;21199;-60
2022/11/16 09:00:42;;;;;;;30.85;19.05;;;;;;;9.06;74.20;99916.53;1720642;82;21741;-60
2022/11/16 09:03:49;;;;;;;32.38;19.57;;;;;;;9.06;74.19;99919.27;1736015;81;21235;-58
2022/11/16 09:07:27;;;;;;;32.65;19.05;;;;;;;9.02;74.16;99907.84;1686813;84;21210;-58
2022/11/16 09:10:33;;;;;;;34.88;21.05;;;;;;;9.02;74.28;99902.37;1737388;81;21756;-60
2022/11/16 09:13:43;;;;;;;32.23;20.00;;;;;;;9.04;74.30;99902.20;1728360;82;21244;-59
2022/11/16 09:16:49;;;;;;;32.08;20.75;;;;;;;9.04;74.30;99900.33;1708486;82;21256;-59
2022/11/16 09:19:54;;;;;;;34.73;22.52;;;;;;;9.05;74.32;99896.56;1716328;81;21244;-59
2022/11/16 09:23:02;;;;;;;43.33;24.47;;;;;;;9.05;74.31;99896.56;1710071;79;21227;-60
2022/11/16 09:26:10;;;;;;;52.78;27.07;;;;;;;9.07;74.26;99895.02;1708229;82;21206;-60
2022/11/16 09:29:20;;;;;;;42.85;25.25;;;;;;;9.07;74.26;99894.52;1708955;84;21289;-58
2022/11/16 09:32:26;;;;;;;45.23;27.17;;;;;;;9.09;74.33;99887.51;1718896;82;21352;-59
2022/11/16 09:35:33;;;;;;;42.43;25.05;;;;;;;9.09;74.28;99887.00;1737471;82;21220;-59
2022/11/16 09:38:48;;;;;;;43.70;24.87;;;;;;;9.12;74.36;99880.32;1713379;82;21200;-57
2022/11/16 09:42:16;;;;;;;43.40;24.47;;;;;;;9.14;74.28;99881.00;1661412;84;21329;-59
2022/11/16 09:45:29;;;;;;;40.98;23.52;;;;;;;9.14;74.35;99875.54;1713851;81;21605;-59
2022/11/16 09:48:34;;;;;;;37.28;22.58;;;;;;;9.16;74.46;99874.86;1707180;82;21212;-59
2022/11/16 09:51:40;;;;;;;42.17;23.57;;;;;;;9.16;74.52;99872.13;1707510;84;21380;-58
2022/11/16 09:54:48;;;;;;;52.20;30.77;;;;;;;9.18;74.49;99870.58;1745571;80;21176;-58
2022/11/16 09:57:57;;;;;;;48.45;28.02;;;;;;;9.18;74.42;99864.58;1740609;81;21562;-57
2022/11/16 10:01:28;;;;;;;43.87;26.02;;;;;;;9.18;74.37;99853.66;1738052;81;21768;-58
2022/11/16 10:04:54;;;;;;;45.40;24.10;;;;;;;9.16;74.18;99851.64;1737045;81;21258;-59
2022/11/16 10:08:08;;;;;;;42.90;23.45;;;;;;;9.16;74.15;99852.15;1736313;82;21766;-58
2022/11/16 10:11:39;;;;;;;40.35;24.77;;;;;;;9.16;74.19;99848.05;1722474;82;21283;-58
2022/11/16 10:15:27;;;;;;;39.27;23.45;;;;;;;9.21;74.27;99841.03;1707546;82;21724;-59
2022/11/16 10:18:43;;;;;;;40.23;22.85;;;;;;;9.23;74.28;99841.69;1659980;85;21690;-60
2022/11/16 10:22:07;;;;;;;40.58;22.55;;;;;;;9.26;74.23;99838.59;1708992;83;21223;-59
2022/11/16 10:25:25;;;;;;;40.12;21.82;;;;;;;9.24;74.15;99832.48;1696493;83;21652;-58
2022/11/16 10:28:45;;;;;;;50.17;22.27;;;;;;;9.26;74.12;99833.13;1687399;83;21796;-60
2022/11/16 10:32:03;;;;;;;35.80;21.65;;;;;;;9.27;74.09;99838.08;1733124;81;21224;-59
2022/11/16 10:35:26;;;;;;;38.58;22.55;;;;;;;9.24;73.95;99846.64;1732963;81;21215;-59
2022/11/16 10:38:37;;;;;;;39.63;22.93;;;;;;;9.19;73.90;99836.27;1733487;82;21840;-59
2022/11/16 10:41:54;;;;;;;42.43;23.38;;;;;;;9.18;73.88;99831.81;1733954;81;21271;-59
2022/11/16 10:45:19;;;;;;;43.70;24.50;;;;;;;9.10;73.78;99834.63;1733372;81;21228;-59
2022/11/16 10:48:43;;;;;;;39.30;23.10;;;;;;;9.04;73.89;99833.45;1733524;82;21714;-60
2022/11/16 10:51:51;;;;;;;48.40;25.70;;;;;;;9.07;74.14;99832.22;1733348;81;21220;-59
2022/11/16 10:55:00;;;;;;;40.03;24.43;;;;;;;9.13;74.41;99830.16;1676097;84;21277;-58
2022/11/16 10:58:12;;;;;;;56.37;29.57;;;;;;;9.20;74.55;99832.49;1674833;83;21239;-57
2022/11/16 11:01:18;;;;;;;46.90;24.52;;;;;;;9.24;74.54;99824.29;1704348;82;21235;-58
2022/11/16 11:04:35;;;;;;;37.48;22.80;;;;;;;9.19;74.29;99821.75;1722527;81;21784;-59
2022/11/16 11:07:42;;;;;;;47.98;24.32;;;;;;;9.17;74.34;99816.47;1747642;80;21264;-59
2022/11/16 11:10:51;;;;;;;45.75;23.65;;;;;;;9.09;74.34;99816.02;1712596;81;21220;-59
2022/11/16 11:14:18;;;;;;;43.87;26.20;;;;;;;9.12;74.53;99816.16;1655867;85;21219;-58
2022/11/16 11:17:24;;;;;;;47.48;26.37;;;;;;;9.13;74.54;99818.37;1669862;84;21749;-57
2022/11/16 11:20:31;;;;;;;41.42;26.42;;;;;;;9.08;74.40;99819.75;1678589;84;21242;-56
2022/11/16 11:23:59;;;;;;;38.67;22.58;;;;;;;9.03;74.23;99810.42;1664642;82;21189;-56
2022/11/16 11:27:06;;;;;;;37.98;21.15;;;;;;;8.96;74.36;99806.19;1643570;87;21867;-55
2022/11/16 11:30:14;;;;;;;52.25;29.65;;;;;;;8.95;74.51;99803.64;1625238;85;22040;-57
2022/11/16 11:33:22;;;;;;;47.40;26.07;;;;;;;8.90;74.46;99806.05;1699682;84;21232;-56
2022/11/16 11:36:33;;;;;;;48.10;25.82;;;;;;;8.83;74.55;99804.55;1666373;85;21225;-57
2022/11/16 11:39:42;;;;;;;50.78;27.40;;;;;;;8.77;74.55;99811.23;1669233;85;21317;-60
2022/11/16 11:42:48;;;;;;;52.25;28.62;;;;;;;8.76;74.68;99802.73;1669539;84;21264;-59
2022/11/16 11:46:14;;;;;;;52.78;29.02;;;;;;;8.79;74.88;99800.50;1658326;84;21196;-59
2022/11/16 11:49:35;;;;;;;53.02;29.77;;;;;;;8.82;74.93;99806.10;1615024;85;21245;-61
2022/11/16 11:52:54;;;;;;;55.17;31.68;;;;;;;8.83;74.95;99804.55;1675691;84;21873;-60
2022/11/16 11:56:04;;;;;;;57.33;31.12;;;;;;;8.86;75.02;99793.28;1667078;84;21248;-59
2022/11/16 11:59:13;;;;;;;51.02;29.50;;;;;;;8.89;75.11;99796.18;1669073;84;21264;-60
2022/11/16 12:03:04;;;;;;;51.23;28.00;;;;;;;8.85;74.99;99794.82;1657939;85;21216;-59
2022/11/16 12:06:16;;;;;;;56.85;30.52;;;;;;;8.82;75.02;99789.22;1648090;85;21773;-62
2022/11/16 12:09:35;;;;;;;53.63;30.08;;;;;;;8.78;74.93;99792.49;1662151;84;21641;-62
2022/11/16 12:13:15;;;;;;;51.45;29.15;;;;;;;8.79;75.06;99788.22;1669483;85;21205;-60
2022/11/16 12:16:27;;;;;;;47.30;25.88;;;;;;;8.82;75.15;99788.36;1629897;86;21668;-58
2022/11/16 12:19:41;;;;;;;41.90;24.77;;;;;;;8.79;75.11;99789.58;1659882;84;21204;-59
2022/11/16 12:23:27;;;;;;;49.48;27.87;;;;;;;8.81;75.19;99790.77;1659065;84;21153;-60
2022/11/16 12:27:04;;;;;;;52.48;28.02;;;;;;;8.81;75.17;99788.90;1724306;80;21566;-60
2022/11/16 12:30:27;;;;;;;54.15;28.35;;;;;;;8.82;75.26;99788.36;1704844;82;22131;-61
2022/11/16 12:34:02;;;;;;;55.28;28.83;;;;;;;8.84;75.26;99793.13;1671085;85;21550;-59
2022/11/16 12:37:29;;;;;;;48.08;27.25;;;;;;;8.82;75.23;99795.19;1661040;85;21311;-59
2022/11/16 12:40:40;;;;;;;50.67;27.27;;;;;;;8.76;75.21;99786.36;1706871;81;21220;-59
2022/11/16 12:44:08;;;;;;;51.23;25.77;;;;;;;8.71;75.17;99784.67;1678639;84;21301;-61
2022/11/16 12:47:43;;;;;;;67.37;31.23;;;;;;;8.68;75.24;99787.76;1687877;85;21207;-59
2022/11/16 12:51:02;;;;;;;47.95;26.68;;;;;;;8.65;75.31;99785.39;1717131;81;21607;-60
2022/11/16 12:54:42;;;;;;;59.18;28.73;;;;;;;8.55;75.04;99788.33;1755812;80;21459;-59
2022/11/16 12:58:39;;;;;;;49.58;28.45;;;;;;;8.47;75.12;99783.41;1717857;82;21243;-60
2022/11/16 13:02:01;;;;;;;59.53;32.17;;;;;;;8.44;75.24;99780.54;1704570;81;21208;-61
2022/11/16 13:05:27;;;;;;;45.83;26.23;;;;;;;8.38;75.30;99784.48;1696718;82;21536;-60
2022/11/16 13:09:06;;;;;;;45.85;26.87;;;;;;;8.37;75.46;99777.34;1700894;82;22005;-58
2022/11/16 13:12:18;;;;;;;48.20;27.02;;;;;;;8.39;75.58;99772.54;1715816;81;21232;-59
2022/11/16 13:15:28;;;;;;;44.10;26.30;;;;;;;8.37;75.46;99769.16;1701015;83;21563;-59
2022/11/16 13:18:34;;;;;;;46.58;26.00;;;;;;;8.30;75.43;99770.88;1702794;81;21208;-59
2022/11/16 13:22:02;;;;;;;51.40;27.07;;;;;;;8.29;75.54;99767.30;1683992;83;21331;-60
2022/11/16 13:25:23;;;;;;;47.20;25.30;;;;;;;8.27;75.50;99760.33;1661709;85;21199;-59
2022/11/16 13:28:37;;;;;;;53.65;28.20;;;;;;;8.21;75.52;99762.38;1719392;82;21184;-60
2022/11/16 13:32:04;;;;;;;44.23;26.23;;;;;;;8.18;75.48;99751.28;1735387;82;21219;-60
2022/11/16 13:35:15;;;;;;;55.40;30.43;;;;;;;8.12;75.53;99748.44;1705446;81;21224;-60
2022/11/16 13:38:22;;;;;;;47.23;26.87;;;;;;;8.13;75.75;99753.72;1718773;83;21215;-61
2022/11/16 13:41:48;;;;;;;49.20;27.17;;;;;;;8.13;75.83;99746.05;1695544;81;21228;-59
2022/11/16 13:44:58;;;;;;;50.17;24.32;;;;;;;8.16;75.95;99744.33;1716719;83;21181;-61
2022/11/16 13:48:05;;;;;;;44.18;23.07;;;;;;;8.16;75.95;99748.41;1727112;83;21209;-59
2022/11/16 13:51:13;;;;;;;43.15;24.82;;;;;;;8.13;75.91;99741.45;1707386;81;21610;-60
2022/11/16 13:54:20;;;;;;;43.52;23.10;;;;;;;8.15;75.97;99745.36;1708950;81;21208;-62
2022/11/16 13:57:30;;;;;;;49.60;25.72;;;;;;;8.16;76.04;99739.73;1699342;83;21193;-61
2022/11/16 14:00:44;;;;;;;40.92;23.45;;;;;;;8.18;76.03;99744.47;1698647;83;21340;-62
2022/11/16 14:03:59;;;;;;;45.50;23.18;;;;;;;8.20;76.07;99736.11;1735010;81;21205;-59
2022/11/16 14:07:05;;;;;;;46.88;25.30;;;;;;;8.22;76.10;99738.16;1732716;81;21224;-60
2022/11/16 14:10:11;;;;;;;44.88;24.50;;;;;;;8.23;76.08;99733.09;1726510;81;21213;-60
2022/11/16 14:13:49;;;;;;;50.33;25.45;;;;;;;8.21;76.03;99737.33;1713898;81;21271;-61
2022/11/16 14:16:59;;;;;;;48.40;25.95;;;;;;;8.20;76.10;99743.79;1663753;85;21605;-61
2022/11/16 14:20:06;;;;;;;52.98;28.30;;;;;;;8.20;76.11;99746.52;1698359;83;21209;-60
2022/11/16 14:23:45;;;;;;;59.90;30.02;;;;;;;8.20;76.14;99749.25;1714776;81;21231;-61
2022/11/16 14:27:22;;;;;;;58.02;30.15;;;;;;;8.19;76.20;99736.66;1701451;79;21233;-61
2022/11/16 14:30:38;;;;;;;58.28;31.80;;;;;;;8.22;76.23;99750.43;1672362;84;21794;-62
2022/11/16 14:33:46;;;;;;;55.08;29.75;;;;;;;8.21;76.19;99750.10;1639707;85;21226;-60
2022/11/16 14:36:53;;;;;;;61.35;36.08;;;;;;;8.20;76.17;99745.66;1702232;84;21228;-61
2022/11/16 14:39:59;;;;;;;59.25;31.60;;;;;;;8.19;76.12;99745.33;1701686;84;21271;-62
2022/11/16 14:43:13;;;;;;;48.87;28.17;;;;;;;8.18;76.16;99743.64;1702288;83;21201;-63
2022/11/16 14:46:38;;;;;;;51.28;29.20;;;;;;;8.19;76.24;99744.83;1672005;84;21288;-60
2022/11/16 14:49:46;;;;;;;49.60;29.60;;;;;;;8.20;76.31;99736.97;1672103;85;21214;-60
2022/11/16 14:52:53;;;;;;;52.08;27.98;;;;;;;8.22;76.30;99743.61;1671034;83;21750;-61
2022/11/16 14:56:00;;;;;;;51.08;28.32;;;;;;;8.22;76.21;99735.44;1706320;82;21228;-59
2022/11/16 14:59:07;;;;;;;51.30;30.43;;;;;;;8.16;76.10;99727.97;1672042;85;21767;-58
2022/11/16 15:02:22;;;;;;;44.60;26.00;;;;;;;8.14;76.14;99730.02;1662498;86;21283;-58
2022/11/16 15:05:31;;;;;;;43.73;24.45;;;;;;;8.14;76.28;99728.65;1716089;82;21220;-59
2022/11/16 15:08:46;;;;;;;41.20;22.32;;;;;;;8.16;76.31;99733.42;1690944;82;21792;-58
2022/11/16 15:15:23;;;;;;;42.67;26.12;;;;;;;8.14;76.34;99724.56;1703564;84;21228;-59
2022/11/16 15:18:31;;;;;;;39.08;22.35;;;;;;;8.17;76.42;99728.30;1673367;84;22078;-58
2022/11/16 15:21:37;;;;;;;40.67;22.25;;;;;;;8.18;76.46;99722.66;1672290;84;21759;-59
2022/11/16 15:24:43;;;;;;;41.42;23.10;;;;;;;8.19;76.46;99723.52;1664755;85;21215;-59
2022/11/16 15:27:52;;;;;;;43.30;21.85;;;;;;;8.17;76.39;99724.20;1706514;80;21252;-61
2022/11/16 15:31:08;;;;;;;45.03;23.70;;;;;;;8.14;76.39;99722.70;1704584;84;21228;-60
2022/11/16 15:34:15;;;;;;;41.95;22.60;;;;;;;8.13;76.41;99722.88;1704334;83;21228;-61
2022/11/16 15:37:20;;;;;;;40.35;22.17;;;;;;;8.12;76.44;99721.19;1705273;84;21212;-60
2022/11/16 15:40:27;;;;;;;38.10;20.77;;;;;;;8.11;76.46;99712.15;1705111;84;21232;-60
2022/11/16 15:43:37;;;;;;;32.42;19.30;;;;;;;8.11;76.52;99704.47;1708238;82;21184;-60
2022/11/16 15:46:44;;;;;;;33.63;18.82;;;;;;;8.11;76.54;99705.33;1728999;81;21264;-60
2022/11/16 15:49:51;;;;;;;36.73;20.17;;;;;;;8.11;76.53;99703.97;1748984;81;21339;-61
2022/11/16 15:53:00;;;;;;;35.63;20.30;;;;;;;8.12;76.57;99704.30;1732370;83;21252;-60
2022/11/16 15:56:06;;;;;;;31.10;19.30;;;;;;;8.12;76.58;99702.11;1731569;81;21213;-60
2022/11/16 15:59:33;;;;;;;37.98;20.92;;;;;;;8.13;76.59;99702.42;1731670;81;21340;-62
2022/11/16 16:02:39;;;;;;;34.92;21.35;;;;;;;8.14;76.63;99694.58;1731631;83;21197;-61
2022/11/16 16:05:48;;;;;;;36.25;19.87;;;;;;;8.13;76.63;99693.75;1731673;81;21264;-60
2022/11/16 16:08:56;;;;;;;37.10;21.25;;;;;;;8.13;76.67;99697.84;1732226;81;21256;-61
2022/11/16 16:12:25;;;;;;;34.65;19.60;;;;;;;8.13;76.72;99697.84;1732981;83;21366;-61
2022/11/16 16:15:40;;;;;;;32.83;19.52;;;;;;;8.16;76.76;99703.44;1732833;81;21943;-61
2022/11/16 16:18:51;;;;;;;38.00;24.18;;;;;;;8.16;76.72;99694.75;1732970;81;21361;-60
2022/11/16 16:22:00;;;;;;;44.23;24.30;;;;;;;8.18;76.71;99702.22;1706802;82;21276;-61
2022/11/16 16:25:13;;;;;;;35.98;21.95;;;;;;;8.18;76.68;99701.39;1672972;84;21203;-60
2022/11/16 16:28:19;;;;;;;39.23;22.50;;;;;;;8.16;76.72;99697.48;1673281;84;21214;-62
2022/11/16 16:31:25;;;;;;;37.88;22.02;;;;;;;8.17;76.79;99696.44;1651697;85;21296;-62
2022/11/16 16:34:31;;;;;;;40.03;22.30;;;;;;;8.17;76.80;99699.16;1644482;87;21216;-62
2022/11/16 16:37:42;;;;;;;46.98;24.00;;;;;;;8.19;76.82;99698.98;1639106;85;21789;-61
2022/11/16 16:40:49;;;;;;;48.33;26.27;;;;;;;8.17;76.74;99699.67;1639723;84;21792;-61
2022/11/16 16:43:55;;;;;;;56.23;25.52;;;;;;;8.16;76.70;99699.34;1636069;87;21272;-60
2022/11/16 16:47:02;;;;;;;40.00;23.25;;;;;;;8.14;76.74;99697.30;1608170;87;21258;-61
2022/11/16 16:50:10;;;;;;;45.00;25.88;;;;;;;8.16;76.73;99692.03;1655452;85;21267;-60
2022/11/16 16:53:18;;;;;;;57.78;29.70;;;;;;;8.12;76.71;99689.30;1653499;84;21292;-60
2022/11/16 16:56:23;;;;;;;49.93;27.40;;;;;;;8.11;76.77;99683.52;1676140;84;21208;-59
2022/11/16 16:59:30;;;;;;;58.00;29.05;;;;;;;8.08;76.78;99684.39;1675276;85;21244;-60
2022/11/16 17:02:35;;;;;;;47.55;27.87;;;;;;;8.08;76.83;99678.94;1675670;84;21212;-60
2022/11/16 17:05:41;;;;;;;58.00;29.32;;;;;;;8.08;76.84;99677.07;1675439;84;21235;-60
2022/11/16 17:08:47;;;;;;;67.50;32.08;;;;;;;8.06;76.84;99680.48;1675638;84;21228;-60
2022/11/16 17:11:54;;;;;;;69.10;35.13;;;;;;;8.04;76.83;99674.34;1676551;85;21236;-60
2022/11/16 17:15:02;;;;;;;57.43;32.75;;;;;;;8.04;76.90;99659.36;1676343;85;21729;-60
2022/11/16 17:18:11;;;;;;;47.90;28.47;;;;;;;8.05;76.95;99656.98;1676237;84;21772;-60
2022/11/16 17:21:18;;;;;;;45.23;27.27;;;;;;;8.07;76.96;99649.45;1658080;85;21788;-61
2022/11/16 17:24:24;;;;;;;47.48;26.07;;;;;;;8.09;77.01;99652.00;1676479;84;21264;-61
2022/11/16 17:27:30;;;;;;;47.23;27.22;;;;;;;8.10;77.02;99642.31;1676770;85;21215;-61
2022/11/16 17:30:38;;;;;;;50.95;28.42;;;;;;;8.11;77.05;99649.45;1684311;82;21216;-61
2022/11/16 17:33:48;;;;;;;47.33;27.98;;;;;;;8.13;77.09;99641.09;1705760;83;21338;-60
2022/11/16 17:36:56;;;;;;;45.70;26.65;;;;;;;8.14;77.12;99637.33;1705867;83;21200;-59
2022/11/16 17:40:02;;;;;;;43.20;26.50;;;;;;;8.15;77.19;99635.79;1674422;84;21222;-59
2022/11/16 17:43:08;;;;;;;58.55;29.20;;;;;;;8.16;77.19;99640.23;1674332;85;21232;-60
2022/11/16 17:46:22;;;;;;;51.25;29.40;;;;;;;8.16;77.13;99636.14;1674471;84;21258;-59
2022/11/16 17:49:27;;;;;;;84.42;38.70;;;;;;;8.16;77.15;99639.38;1674319;85;21212;-60
2022/11/16 17:52:34;;;;;;;88.50;43.92;;;;;;;8.13;77.12;99638.38;1674396;85;21222;-60
2022/11/16 17:55:44;;;;;;;75.17;38.10;;;;;;;8.09;77.04;99627.47;1674384;85;21395;-59
2022/11/16 17:58:53;;;;;;;71.07;38.65;;;;;;;8.06;77.11;99627.33;1696263;84;21203;-60
2022/11/16 18:01:59;;;;;;;73.72;37.48;;;;;;;8.05;77.24;99625.64;1692365;85;21569;-61
2022/11/16 18:05:06;;;;;;;69.72;36.77;;;;;;;8.06;77.26;99627.33;1730706;81;21220;-59
2022/11/16 18:08:13;;;;;;;69.00;35.80;;;;;;;8.08;77.31;99631.23;1734824;81;21279;-60
2022/11/16 18:11:27;;;;;;;70.47;36.42;;;;;;;8.09;77.36;99622.02;1734616;82;21247;-61
2022/11/16 18:14:34;;;;;;;59.63;33.40;;;;;;;8.09;77.38;99620.66;1734309;82;21211;-60
2022/11/16 18:17:42;;;;;;;68.45;35.78;;;;;;;8.11;77.39;99624.06;1696351;84;21223;-59
2022/11/16 18:20:49;;;;;;;56.40;33.08;;;;;;;8.12;77.44;99617.61;1662772;86;21275;-59
2022/11/16 18:23:59;;;;;;;51.02;31.10;;;;;;;8.13;77.46;99615.20;1704302;84;21228;-59
2022/11/16 18:27:05;;;;;;;53.17;32.45;;;;;;;8.13;77.44;99611.97;1673420;85;21250;-60
2022/11/16 18:30:13;;;;;;;45.30;27.67;;;;;;;8.14;77.46;99605.98;1663046;85;21246;-60
2022/11/16 18:33:18;;;;;;;42.60;26.20;;;;;;;8.14;77.44;99600.53;1691253;82;21737;-60
2022/11/16 18:36:27;;;;;;;41.53;25.88;;;;;;;8.14;77.40;99595.08;1709315;82;21269;-60
2022/11/16 18:39:31;;;;;;;41.70;26.05;;;;;;;8.13;77.39;99598.84;1710168;84;21251;-61
2022/11/16 18:42:37;;;;;;;36.85;23.62;;;;;;;8.12;77.46;99599.89;1710613;82;21192;-61
2022/11/16 18:45:43;;;;;;;39.20;24.75;;;;;;;8.12;77.48;99595.80;1661857;85;21260;-60
2022/11/16 18:48:48;;;;;;;38.23;24.52;;;;;;;8.11;77.51;99591.35;1710892;82;21299;-59
2022/11/16 18:51:56;;;;;;;45.17;26.90;;;;;;;8.12;77.49;99587.63;1710138;82;21212;-58
2022/11/16 18:55:01;;;;;;;41.58;25.95;;;;;;;8.10;77.45;99595.98;1710008;84;21200;-59
2022/11/16 18:58:09;;;;;;;42.65;25.65;;;;;;;8.10;77.50;99585.58;1709970;82;21800;-59
2022/11/16 19:01:19;;;;;;;47.33;28.23;;;;;;;8.08;77.39;99584.40;1660833;85;21812;-60
2022/11/16 19:04:27;;;;;;;44.15;26.87;;;;;;;8.01;77.36;99581.22;1695534;83;21789;-60
2022/11/16 19:07:34;;;;;;;44.00;24.57;;;;;;;8.01;77.47;99580.67;1662306;86;21402;-60
2022/11/16 19:10:45;;;;;;;41.63;24.02;;;;;;;8.04;77.58;99589.03;1711178;84;21251;-58
2022/11/16 19:13:51;;;;;;;38.70;23.55;;;;;;;8.04;77.60;99587.13;1664831;83;21267;-60
2022/11/16 19:16:58;;;;;;;38.70;22.58;;;;;;;8.06;77.66;99586.95;1712414;83;21220;-59
2022/11/16 19:20:04;;;;;;;35.73;22.00;;;;;;;8.08;77.74;99582.17;1662671;85;21244;-59
2022/11/16 19:23:11;;;;;;;35.03;21.97;;;;;;;8.11;77.76;99584.54;1710544;84;21295;-59
2022/11/16 19:26:21;;;;;;;37.42;22.55;;;;;;;8.12;77.77;99583.53;1662790;84;21506;-59
2022/11/16 19:29:28;;;;;;;35.33;22.90;;;;;;;8.12;77.73;99581.63;1711185;82;21187;-58
2022/11/16 19:32:35;;;;;;;36.60;22.60;;;;;;;8.13;77.73;99577.90;1664323;81;21260;-58
2022/11/16 19:35:43;;;;;;;35.90;23.32;;;;;;;8.16;77.73;99577.53;1710476;83;21239;-59
2022/11/16 19:38:52;;;;;;;40.00;26.45;;;;;;;8.16;77.80;99572.09;1662786;85;21634;-60
2022/11/16 19:41:57;;;;;;;34.15;23.27;;;;;;;8.16;77.87;99566.63;1710784;82;21760;-59
2022/11/16 19:45:04;;;;;;;33.78;22.37;;;;;;;8.18;77.85;99563.73;1661998;85;21256;-59
2022/11/16 19:48:10;;;;;;;35.05;23.95;;;;;;;8.18;77.85;99562.36;1710657;82;21641;-60
2022/11/16 19:51:19;;;;;;;34.88;23.07;;;;;;;8.19;77.86;99559.95;1661795;86;21847;-60
2022/11/16 19:54:28;;;;;;;36.93;24.87;;;;;;;8.19;77.80;99551.78;1710659;82;21204;-59
2022/11/16 19:57:35;;;;;;;36.53;24.30;;;;;;;8.15;77.78;99551.28;1662702;84;21244;-60
2022/11/16 20:00:43;;;;;;;38.28;24.45;;;;;;;8.15;77.81;99548.56;1710962;82;21390;-61
2022/11/16 20:03:49;;;;;;;36.68;24.00;;;;;;;8.15;77.85;99540.92;1662736;84;21256;-60
2022/11/16 20:06:55;;;;;;;37.25;23.12;;;;;;;8.12;77.87;99543.47;1711057;83;21224;-61
2022/11/16 20:10:02;;;;;;;35.60;23.80;;;;;;;8.12;77.89;99540.75;1662516;86;21253;-60
2022/11/16 20:13:09;;;;;;;35.05;21.87;;;;;;;8.15;77.94;99532.20;1711030;84;21184;-60
2022/11/16 20:16:16;;;;;;;34.48;22.40;;;;;;;8.14;77.94;99535.11;1662508;85;21260;-60
2022/11/16 20:19:23;;;;;;;32.65;21.27;;;;;;;8.15;77.99;99528.66;1696881;83;21240;-60
2022/11/16 20:22:31;;;;;;;32.60;21.52;;;;;;;8.16;78.02;99525.75;1711053;83;21216;-60
2022/11/16 20:25:37;;;;;;;33.13;21.65;;;;;;;8.17;78.11;99520.61;1663434;85;21296;-59
2022/11/16 20:28:49;;;;;;;31.25;20.17;;;;;;;8.19;78.14;99517.70;1710973;83;21341;-60
2022/11/16 20:31:56;;;;;;;34.08;21.17;;;;;;;8.20;78.10;99520.75;1662989;84;21216;-60
2022/11/16 20:35:02;;;;;;;32.38;23.00;;;;;;;8.18;78.02;99517.38;1707437;81;21209;-59
2022/11/16 20:38:11;;;;;;;35.03;22.05;;;;;;;8.12;77.98;99520.84;1667081;86;21381;-61
2022/11/16 20:41:22;;;;;;;33.75;23.30;;;;;;;8.11;78.05;99521.85;1701320;82;21201;-59
2022/11/16 20:44:29;;;;;;;33.05;22.22;;;;;;;8.08;78.01;99509.95;1666971;86;21231;-58
2022/11/16 20:47:35;;;;;;;30.15;21.68;;;;;;;8.07;78.13;99508.27;1701118;83;21236;-58
2022/11/16 20:50:41;;;;;;;34.05;23.22;;;;;;;8.10;78.20;99507.91;1666975;86;21282;-60
2022/11/16 20:53:51;;;;;;;34.50;23.27;;;;;;;8.10;78.23;99503.31;1702278;84;21275;-58
2022/11/16 20:56:57;;;;;;;36.20;23.62;;;;;;;8.10;78.25;99503.81;1666944;84;21242;-59
2022/11/16 21:00:04;;;;;;;38.65;24.02;;;;;;;8.13;78.27;99496.63;1701480;84;21578;-58
2022/11/16 21:03:11;;;;;;;33.42;22.82;;;;;;;8.11;78.21;99500.91;1701195;83;21209;-58
2022/11/16 21:06:19;;;;;;;33.83;22.07;;;;;;;8.08;78.15;99497.69;1701114;83;21260;-62
2022/11/16 21:09:27;;;;;;;33.65;22.27;;;;;;;8.08;78.25;99501.27;1708294;84;21275;-57
2022/11/16 21:16:07;;;;;;;29.50;21.35;;;;;;;8.11;78.34;99492.73;1707844;84;21275;-58